Racecast

Conor Blair

The Dalles (OR) · 12 · 4A-2 TRI-VALLEYOR D4A4A · Compare head to head

Athlete rating 124.2 2021 XC season
Best race 131.8 XC
Races 120
Seasons 7 2016 — 2022

RankedNation #13749·OR #475·OR D4A #100·4A-2 TRI-VALLEY #5·Team #13 ?

Rating scale ?

Cross Country

2021 XC 121.0

The Dalles (OR) · Grade 12

Date Meet Event Result Place Rating Difficulty PR/SR Flags
2021-11-06 Lane Community College 5000m 19:05.9 68th · 5th on team 117.8 +0.042 ★CR CSR
2021-10-27 Pendleton Country Club 5000m 17:40.4 8th · 3rd on team 125.4 +0.025 ★PR ★CR SR CSR RSR
2021-10-21 Valley Catholic 3000m 10:33.5 18th · 3rd on team 119.0 +0.022 ★PR ★CR SR CSR
2021-10-14 Pendleton Country Club 5000m 18:08.2 10th · 3rd on team 121.1 +0.025 PR CR SR CSR
2021-10-07 Thompson Ranch 5000m 18:20.4 19th · 3rd on team 122.0 +0.041 ★CR CSR
2021-10-01 Joe Dancer Park 5000m 18:35.5 47th · 4th on team 121.2 +0.047 ★CR CSR
2021-09-24 Sorosis Park 5000m 19:21.3 6th · 4th on team 121.6 +0.083 CSR
2021-09-18 Oregon City High School 5000m 18:14.8 42nd · 3rd on team 122.5 +0.039 PR ★CR SR CSR
2021-09-10 Big River Golf Course 5000m 18:49.7 16th · 4th on team 118.7 +0.053 ★CR SR CSR
2021-09-04 The Hydrangea Ranch 5000m 19:28.5 45th · 4th on team 123.8 +0.121 ★CR SR CSR RSR
2021-08-28 Sorosis Park 5000m 19:56.9 3rd · 3rd on team 117.8 +0.083 SR CSR RSR

2020 XC 116.3

The Dalles (OR) · Grade 11

Date Meet Event Result Place Rating Difficulty PR/SR Flags
2021-04-07 Sorosis Park 5000m 19:57.9 20th · 4th on team 116.2 +0.083
2021-03-24 West Canyon Rim City Park 5000m 19:52 13th · 5th on team 115.1 +0.066 ★CR CSR
2021-03-17 Pendleton Country Club 5000m 18:40.9 5th · 4th on team 117.8 +0.025 CR SR CSR
2021-03-10 Sorosis Park 5000m 19:31 7th · 4th on team 118.9 +0.083 SR CSR RSR
2021-03-03 Barnes Butte Trailhead 5000m 19:33.3 6th · 4th on team 113.4 +0.034 SR CSR RSR

2019 XC 118.2

The Dalles (OR) · Grade 10

Date Meet Event Result Place Rating Difficulty PR/SR Flags
2019-10-31 Sorosis Park 5000m 18:55 2nd · 1st on team 121.2 +0.083 ★CR CSR RSR
2019-10-17 Wildhorse Golf Course 5000m 18:29.4 46th · 8th on team 117.9 +0.020 ★CR CSR
2019-10-11 Champoeg State Park 5000m 18:18.9 8th · 1st on team 120.2 +0.034 PR ★CR SR CSR
2019-09-28 Lake Sammamish State Park 5000m 18:38.9 60th · 2nd on team 114.7 +0.010 ★CR CSR
2019-09-21 Sorosis Park 5000m 19:12.3 38th · 4th on team 120.3 +0.083 CR CSR RSR
2019-09-14 Oregon City High School 5000m 18:50.5 71st · 7th on team 117.9 +0.039 CR CSR
2019-09-07 Tualatin HS 5000m 18:29.8 29th · 5th on team 118.5 +0.043 PR ★CR SR CSR RSR
2019-08-31 Sorosis Park 5000m 20:14.9 6th · 5th on team 114.7 +0.083 CR SR CSR RSR

2018 XC 111.1

The Dalles (OR) · Grade 9

Date Meet Event Result Place Rating Difficulty PR/SR Flags
2018-10-24 Barnes Butte Trailhead 5000m 19:21.1 15th · 6th on team 113.8 +0.034 ★CR CSR
2018-10-18 Wildhorse Golf Course 5000m 18:46.1 6th · 4th on team 115.7 +0.020 PR CR SR CSR RSR
2018-10-12 Champoeg State Park 5000m 19:59.1 76th · 8th on team 110.5 +0.034 CR CSR
2018-09-29 Portland Meadows Race Track 5000m 19:30.6 58th · 1st on team 112.9 +0.038 PR ★CR SR CSR RSR
2018-09-22 Sorosis Park 5000m 20:31.9 21st · 6th on team 111.7 +0.083 CR CSR RSR
2018-09-15 Hayden Canyon Atrium 5000m 20:31.4 83rd · 6th on team 108.5 +0.037 ★CR CSR RSR
2018-09-12 Trout Lake School 5000m 20:46.7 38th · 3rd on team 106.9 +0.043 ★CR CSR
2018-09-08 Barnes Butte Trailhead 5000m 20:20 46th · 11th on team 108.4 +0.034 PR CR SR CSR RSR

2017 XC 125.4

The Dalles (OR) · Grade 8

Date Meet Event Result Place Rating Difficulty PR/SR Flags
2017-10-29 Western Oregon University 3000m 12:12.6 40th · 1st on team 125.7 +0.015 ★CR CSR
2017-10-18 Valley Catholic 3000m 11:54 9th · 1st on team 131.8 +0.022 PR CR ★R SR CSR RSR
2017-09-23 Sorosis Park 3000m 12:22.4 17th · 1st on team 124.5 +0.007 PR ★CR SR CSR
2017-09-16 Oregon City High School 3000m 12:48.1 11th · 1st on team 127.1 +0.078 PR ★CR R SR CSR RSR
2017-09-09 Sandstone MS 2500m 11:16.3 26th · 3rd on team 117.9 +0.050 ★PR ★CR SR CSR RSR

2016 XC 114.2

The Dalles (OR) · Grade 7

Date Meet Event Result Place Rating Difficulty PR/SR Flags
2016-10-23 Western Oregon University 3000m 13:33.8 203rd · 5th on team 113.5 +0.015 CR CSR
2016-10-13 Wildhorse Golf Course 3000m 13:23.9 62nd · 6th on team 112.9 -0.003 ★CR CSR
2016-09-30 Riverfront Trail 3000m 13:11.1 13th · 3rd on team 117.5 +0.014 ★CR CSR
2016-09-23 Sorosis Park 3000m 13:05.8 33rd · 5th on team 115.8 +0.007 PR CR SR CSR
2016-09-14 Hood River Valley HS 3000m 14:25.5 37th · 5th on team 118.4 +0.111 ★CR R CSR RSR
2016-09-07 Wy'East MS 3000m 13:42 9th · 3rd on team 112.5 +0.012 PR ★CR R SR CSR RSR
2016-09-03 Sorosis Park 3000m 13:51 3rd · 3rd on team 108.5 +0.007 PR CR R SR CSR RSR

Track & Field

2022 TF

The Dalles (OR) · Grade 12

Date Meet Event Result Place Rating Difficulty PR/SR Flags
2022-05-14 5A-4 Intermountain Conference Championships 400m 54.59 5th · 2nd on team -0.019
2022-05-14 5A-4 Intermountain Conference Championships 400m 54.48 4th · 1st on team -0.019
2022-05-14 5A-4 Intermountain Conference Championships 300mh 45.12 11th · 2nd on team -0.019
2022-05-14 5A-4 Intermountain Conference Championships 300mh 44.76 10th · 1st on team -0.019
2022-05-07 Rex Putnam Invitational 300mh 44.76 2nd · 1st on team -0.043 ★PR SR
2022-05-07 Rex Putnam Invitational 400m 54.07 1st · 1st on team -0.043 ★PR SR
2022-04-29 2022 Dean Nice Invitational pv DNS -0.047
2022-04-29 2022 Dean Nice Invitational 400m 55.02 12th · 1st on team -0.047
2022-04-29 2022 Dean Nice Invitational 300mh 45.01 12th · 1st on team -0.047 PR SR
2022-04-26 The Dalles Small School Invite 300mh 45.63 1st · 1st on team -0.026 PR SR
2022-04-26 The Dalles Small School Invite 400m 55.8 1st · 1st on team -0.026
2022-04-26 The Dalles Small School Invite 100m 12.24 3rd · 3rd on team -0.026 ★PR SR
2022-04-23 The Willamette Falls Invitational 400m 54.32 11th · 1st on team -0.047 PR SR
2022-04-23 The Willamette Falls Invitational 300mh 45.76 15th · 1st on team -0.047 PR SR
2022-04-20 Hood River Valley HS League Meet 300mh 47.01 2nd · 1st on team -0.030
2022-04-20 Hood River Valley HS League Meet 400m 55.27 5th · 1st on team -0.030
2022-04-15 Pizza Schmizza Canby Invitational 400m 54.58 1st · 1st on team -0.045 PR SR
2022-04-15 Pizza Schmizza Canby Invitational 300mh 46.67 1st · 1st on team -0.045 PR SR
2022-04-09 Sherwood "Need For Speed" Classic 400m 56.83 18th · 1st on team -0.044
2022-04-07 Hood River Valley HS league meet pv 9' 6 -0.030
2022-04-07 Hood River Valley HS league meet 400m 55.63 2nd · 1st on team -0.030 SR
2022-03-30 Hillsboro & The Dalles @ St. Helens pv 8-00.00 -0.042
2022-03-30 Hillsboro & The Dalles @ St. Helens 400m 56.01 1st · 1st on team -0.042 SR

2021 TF 104.9

The Dalles (OR) · Grade 11

Date Meet Event Result Place Rating Difficulty PR/SR Flags
2021-05-15 5A-4 IMC District Championships pv 9' 0 -0.028
2021-05-15 5A-4 IMC District Championships 400m 55.17 7th · 2nd on team -0.028 PR SR
2021-05-05 @The Dalles vs Crook County pv 9-06.00 -0.026
2021-05-05 @The Dalles vs Crook County 800m 2:25.61 6th · 4th on team 105.7 -0.026 ★PR SR RSR
2021-05-05 @The Dalles vs Crook County 400m 56.97 2nd · 2nd on team -0.026
2021-04-21 Redmond vs Hood River and The Dallas pv NH -0.015
2021-04-21 Redmond vs Hood River and The Dallas 800m 2:28.34 10th · 4th on team 104.8 -0.015 RSR
2021-04-21 Redmond vs Hood River and The Dallas 400m 56.33 1st · 1st on team -0.015 PR SR
2021-04-16 @The Dalles vs Horizon Christian (HR) pv 7-06.00 -0.026
2021-04-16 @The Dalles vs Horizon Christian (HR) 800m 2:26.96 4th · 4th on team 104.1 -0.026 PR SR RSR
2021-04-16 @The Dalles vs Horizon Christian (HR) 400m 57.72 1st · 1st on team -0.026 PR SR

2019 TF 102.5

The Dalles (OR) · Grade 9

Date Meet Event Result Place Rating Difficulty PR/SR Flags
2019-05-13 IMC Novice Meet pv 7-06.00 -0.020
2019-05-13 IMC Novice Meet 3000m 11:08.01 1st · 1st on team 105.2 -0.020 RSR
2019-05-13 IMC Novice Meet 1500m 5:10.47 8th · 5th on team 104.2 -0.020
2019-04-24 Summit JV pv 7-06.00 -0.019
2019-04-24 Summit JV 1500m 5:20.01 6th · 5th on team 100.7 -0.019
2019-04-24 Summit JV 3000m 11:25.91 2nd · 2nd on team 102.3 -0.019
2019-04-17 Crook County/The Dalles @ Hood River pv 7-06.00 -0.030
2019-04-17 Crook County/The Dalles @ Hood River 1500m 5:05.14 8th · 3rd on team 104.9 -0.030 ★PR SR RSR
2019-04-17 Crook County/The Dalles @ Hood River 3000m 11:00.73 1st · 1st on team 105.0 -0.030 ★PR SR RSR
2019-04-09 Horizon Christian@ The Dalles pv 7-00.00 -0.026
2019-04-09 Horizon Christian@ The Dalles 800m 2:39.05 8th · 6th on team 96.7 -0.026 PR SR RSR
2019-04-09 Horizon Christian@ The Dalles 1500m 5:18.05 8th · 6th on team 100.9 -0.026 SR RSR

2018 TF 114.5

Athletics East Running Club (OR) · Grade 8

Date Meet Event Result Place Rating Difficulty PR/SR Flags
2018-06-24 USATF Oregon Association Junior Olympic Championships hj 1.33m -0.048
2018-06-24 USATF Oregon Association Junior Olympic Championships 3000m 11:34.28 16th · 1st on team 114.0 -0.048
2018-06-24 USATF Oregon Association Junior Olympic Championships 1500m 5:12.51 29th · 1st on team 117.7 -0.048 PR SR
2018-06-03 Portland Track Festival Youth Meet hj 4-06.00 -0.044
2018-06-03 Portland Track Festival Youth Meet 3000m 11:24.93 13th · 6th on team 116.2 -0.044
2018-06-03 Portland Track Festival Youth Meet 1500m 5:26.02 23rd · 5th on team 113.4 -0.044
2018-05-14 Wildcat Home Meet lj 13-00.50 -0.026
2018-05-14 Wildcat Home Meet javelin 85-04 -0.026
2018-05-14 Wildcat Home Meet hj 4-08.00 -0.026
2018-05-14 Wildcat Home Meet 1500m 5:30.64 4th · 3rd on team 114.5 -0.026
2018-05-03 Pendleton Int. javelin 84-04 -0.028
2018-05-03 Pendleton Int. hj 4-06.00 -0.028
2018-05-03 Pendleton Int. 3000m 11:24.39 3rd · 3rd on team 118.8 -0.028 PR SR RSR
2018-04-28 PIL MS Track & Field Invite @ Lincoln javelin 57-01 -0.043
2018-04-28 PIL MS Track & Field Invite @ Lincoln hj 4-03.00 -0.043
2018-04-28 PIL MS Track & Field Invite @ Lincoln 1500m 5:22.67 10th · 2nd on team 114.4 -0.043 PR SR RSR
2018-04-21 PIL MS Track & Field Invite @ Madison hj 4-04.00 -0.043
2018-04-21 PIL MS Track & Field Invite @ Madison javelin 94-00 -0.043
2018-04-21 PIL MS Track & Field Invite @ Madison 1500m 5:32.36 12th · 2nd on team 111.2 -0.043 PR SR RSR
2018-04-17 Hermiston MS Invite hj 4-02.00 -0.028
2018-04-17 Hermiston MS Invite 1500m 5:45.06 9th · 1st on team 110.2 -0.028 PR SR RSR

2017 TF 100.1

The Dalles (OR) · Grade 7

Date Meet Event Result Place Rating Difficulty PR/SR Flags
2017-05-02 Centennial Invitational lj 11-07.00 -0.031
2017-05-02 Centennial Invitational 1500m 5:52.9 13th · 2nd on team 105.7 -0.031 PR SR RSR
2017-04-22 PIL MS Track & Field Invite @ Madison lj 11-01.00 -0.043
2017-04-22 PIL MS Track & Field Invite @ Madison 1500m 6:16.56 8th · 2nd on team 98.4 -0.043
2017-04-22 PIL MS Track & Field Invite @ Madison 800m 3:09.15 6th · 2nd on team 95.4 -0.043 PR SR
2017-04-20 Gordon Russell, The Dalles @ Centennial MS hj NH -0.031
2017-04-20 Gordon Russell, The Dalles @ Centennial MS 1500m 6:16.7 6th · 1st on team 99.3 -0.031
2017-04-12 Hermiston Invitational lj 12-05.00 -0.028
2017-04-12 Hermiston Invitational 1500m 6:07.43 6th · 1st on team 101.5 -0.028 PR SR RSR